| time (UTC) | temp C | wind direction | speed KPH | gust KPH | rain 1hr cm | rain 24hr cm | rain mn cm | humidity % | barometer mb |
| 20260502183024 | 22 | 39 | 17.7 | 33.8 | 0.00 | 2.39 | 0.00 | 51 | 1020.0 |
| 20260502182507 | 22 | 22 | 14.5 | 32.2 | 0.00 | 2.39 | 0.00 | 52 | 1020.1 |
| 20260502182013 | 22 | 24 | 19.3 | 32.2 | 0.00 | 2.39 | 0.00 | 51 | 1020.3 |
| 20260502181528 | 22 | 9 | 17.7 | 27.4 | 0.00 | 2.41 | 0.00 | 53 | 1020.4 |
| 20260502181008 | 21 | 336 | 14.5 | 29.0 | 0.00 | 2.41 | 0.00 | 54 | 1020.4 |
| 20260502180506 | 21 | 352 | 19.3 | 30.6 | 0.00 | 2.41 | 0.00 | 53 | 1020.5 |
| 20260502170504 | 20 | 14 | 14.5 | 32.2 | 0.00 | 2.41 | 0.00 | 64 | 1020.7 |
| 20260502164007 | 20 | 83 | 16.1 | 27.4 | 0.00 | 2.46 | 0.00 | 60 | 1020.7 |
| 20260502163506 | 20 | 11 | 14.5 | 32.2 | 0.00 | 2.62 | 0.00 | 60 | 1020.8 |
| 20260502163004 | 20 | 55 | 14.5 | 32.2 | 0.00 | 2.74 | 0.00 | 62 | 1020.6 |
| 20260502162502 | 20 | 5 | 16.1 | 30.6 | 0.00 | 2.77 | 0.00 | 62 | 1020.6 |
| 20260502162001 | 20 | 51 | 9.7 | 37.0 | 0.00 | 2.77 | 0.00 | 65 | 1020.6 |
| 20260502161506 | 19 | 24 | 17.7 | 37.0 | 0.00 | 2.77 | 0.00 | 64 | 1020.5 |
| 20260502161003 | 19 | 32 | 16.1 | 37.0 | 0.00 | 2.79 | 0.00 | 65 | 1020.4 |
| 20260502160507 | 19 | 11 | 16.1 | 29.0 | 0.00 | 2.79 | 0.00 | 67 | 1020.3 |
| 20260502152008 | 18 | 32 | 8.0 | 33.8 | 0.00 | 2.79 | 0.00 | 76 | 1020.4 |
| 20260502151505 | 18 | 15 | 12.9 | 30.6 | 0.00 | 2.82 | 0.00 | 74 | 1020.4 |
| 20260502151003 | 17 | 55 | 16.1 | 32.2 | 0.00 | 2.90 | 0.00 | 75 | 1020.3 |
| 20260502150503 | 17 | 32 | 20.9 | 33.8 | 0.00 | 3.02 | 0.00 | 76 | 1020.2 |
| 20260502130507 | 15 | 66 | 9.7 | 29.0 | 0.00 | 3.28 | 0.00 | 82 | 1019.0 |
| 20260502123507 | 13 | 355 | 11.3 | 27.4 | 0.00 | 3.30 | 0.00 | 85 | 1018.6 |
| 20260502123014 | 13 | 32 | 17.7 | 27.4 | 0.00 | 3.30 | 0.00 | 85 | 1018.6 |
| 20260502122504 | 13 | 39 | 12.9 | 27.4 | 0.00 | 3.30 | 0.00 | 85 | 1018.5 |
| 20260502122008 | 13 | 50 | 16.1 | 27.4 | 0.00 | 3.33 | 0.00 | 85 | 1018.4 |
| 20260502121516 | 13 | 72 | 12.9 | 27.4 | 0.00 | 3.48 | 0.00 | 86 | 1018.3 |
| 20260502121004 | 13 | 33 | 9.7 | 25.7 | 0.00 | 3.48 | 0.00 | 86 | 1018.2 |
| 20260502120508 | 13 | 13 | 12.9 | 29.0 | 0.00 | 3.48 | 0.00 | 86 | 1018.2 |
| 20260502115507 | 13 | 34 | 12.9 | 24.1 | 0.00 | 3.48 | 0.00 | 86 | 1018.1 |
| 20260502115008 | 13 | 88 | 9.7 | 24.1 | 0.00 | 3.48 | 0.00 | 86 | 1018.0 |
| 20260502114534 | 13 | 10 | 14.5 | 29.0 | 0.00 | 3.48 | 0.00 | 85 | 1017.9 |
| 20260502114007 | 13 | 36 | 12.9 | 29.0 | 0.00 | 3.48 | 0.00 | 85 | 1017.8 |
| 20260502113510 | 13 | 59 | 14.5 | 27.4 | 0.00 | 3.48 | 0.00 | 85 | 1017.7 |
| 20260502113029 | 13 | 61 | 14.5 | 24.1 | 0.00 | 3.48 | 0.00 | 85 | 1017.7 |
| 20260502112508 | 13 | 22 | 12.9 | 24.1 | 0.00 | 3.48 | 0.00 | 85 | 1017.5 |
| 20260502112008 | 13 | 21 | 9.7 | 27.4 | 0.00 | 3.48 | 0.00 | 84 | 1017.4 |
| 20260502111514 | 13 | 24 | 9.7 | 27.4 | 0.00 | 3.48 | 0.00 | 84 | 1017.5 |
| 20260502111005 | 13 | 327 | 11.3 | 24.1 | 0.00 | 3.48 | 0.00 | 84 | 1017.4 |
| 20260502110506 | 13 | 9 | 8.0 | 17.7 | 0.00 | 3.48 | 0.00 | 85 | 1017.3 |
| 20260502110020 | 13 | 57 | 6.4 | 17.7 | 0.00 | 3.48 | 0.00 | 86 | 1017.1 |
| 20260502105512 | 13 | 39 | 4.8 | 17.7 | 0.00 | 3.48 | 0.00 | 86 | 1017.0 |
| 20260502105008 | 13 | 49 | 6.4 | 17.7 | 0.00 | 3.48 | 0.00 | 87 | 1017.0 |
| 20260502104523 | 13 | 20 | 8.0 | 17.7 | 0.00 | 3.48 | 0.00 | 87 | 1016.9 |
| 20260502104007 | 13 | 17 | 6.4 | 16.1 | 0.00 | 3.48 | 0.00 | 88 | 1016.8 |
| 20260502103512 | 13 | 9 | 4.8 | 16.1 | 0.00 | 3.48 | 0.00 | 88 | 1016.8 |
| 20260502103025 | 13 | 37 | 4.8 | 20.9 | 0.00 | 3.48 | 0.00 | 88 | 1016.7 |
| 20260502102510 | 13 | 53 | 4.8 | 20.9 | 0.00 | 3.48 | 0.00 | 88 | 1016.6 |
| 20260502102012 | 13 | 53 | 6.4 | 20.9 | 0.00 | 3.48 | 0.00 | 88 | 1016.5 |
| 20260502101525 | 13 | 70 | 6.4 | 16.1 | 0.00 | 3.48 | 0.00 | 88 | 1016.5 |
| 20260502101011 | 13 | 74 | 6.4 | 16.1 | 0.00 | 3.48 | 0.00 | 88 | 1016.4 |
| 20260502100508 | 13 | 57 | 8.0 | 20.9 | 0.00 | 3.48 | 0.00 | 87 | 1016.3 |
| 20260502091528 | 13 | 23 | 11.3 | 27.4 | 0.00 | 3.48 | 0.00 | 88 | 1015.7 |
| 20260502091010 | 13 | 35 | 9.7 | 27.4 | 0.00 | 3.48 | 0.00 | 88 | 1015.8 |
| 20260502090510 | 14 | 41 | 11.3 | 27.4 | 0.00 | 3.48 | 0.00 | 89 | 1015.7 |
| 20260502071503 | 14 | 31 | 14.5 | 29.0 | 0.00 | 3.48 | 0.00 | 89 | 1015.4 |
| 20260502071002 | 14 | 56 | 17.7 | 29.0 | 0.00 | 3.48 | 0.00 | 89 | 1015.2 |
| 20260502070503 | 14 | 67 | 11.3 | 27.4 | 0.00 | 3.48 | 0.00 | 90 | 1015.3 |
| 20260502070005 | 14 | 68 | 9.7 | 27.4 | 0.00 | 3.48 | 0.00 | 90 | 1015.3 |
| 20260502065504 | 14 | 22 | 6.4 | 24.1 | 0.00 | 3.48 | 0.00 | 90 | 1015.3 |
| 20260502065007 | 14 | 42 | 8.0 | 30.6 | 0.00 | 3.48 | 0.00 | 90 | 1015.4 |
| 20260502064521 | 14 | 52 | 11.3 | 38.6 | 0.00 | 3.48 | 0.00 | 90 | 1015.5 |
| 20260502064003 | 14 | 55 | 9.7 | 38.6 | 0.00 | 3.48 | 0.00 | 90 | 1015.5 |
| 20260502063510 | 14 | 13 | 16.1 | 33.8 | 0.00 | 3.48 | 0.00 | 90 | 1015.6 |
| 20260502063021 | 14 | 352 | 12.9 | 32.2 | 0.00 | 3.48 | 0.00 | 91 | 1015.5 |
| 20260502062502 | 14 | 5 | 11.3 | 30.6 | 0.00 | 3.48 | 0.00 | 91 | 1015.5 |
| 20260502062002 | 14 | 28 | 9.7 | 33.8 | 0.00 | 3.48 | 0.00 | 91 | 1015.4 |
| 20260502061503 | 14 | 17 | 17.7 | 37.0 | 0.00 | 3.48 | 0.00 | 91 | 1015.3 |
| 20260502061002 | 14 | 57 | 16.1 | 37.0 | 0.00 | 3.48 | 0.00 | 91 | 1015.3 |
| 20260502060503 | 14 | 107 | 17.7 | 30.6 | 0.00 | 3.48 | 0.00 | 91 | 1015.4 |
| 20260502060009 | 14 | 44 | 14.5 | 35.4 | 0.00 | 3.48 | 0.00 | 92 | 1015.3 |
| 20260502055503 | 14 | 36 | 19.3 | 35.4 | 0.00 | 3.48 | 0.00 | 92 | 1015.4 |
| 20260502055006 | 14 | 24 | 14.5 | 35.4 | 0.00 | 3.48 | 0.00 | 92 | 1015.3 |
| 20260502054509 | 14 | 59 | 19.3 | 35.4 | 0.00 | 3.48 | 0.00 | 92 | 1015.4 |
| 20260502054005 | 14 | 38 | 17.7 | 37.0 | 0.00 | 3.48 | 0.00 | 92 | 1015.3 |
| 20260502053504 | 14 | 16 | 14.5 | 37.0 | 0.03 | 3.48 | 0.00 | 93 | 1015.3 |
| 20260502053012 | 14 | 50 | 14.5 | 37.0 | 0.03 | 3.48 | 0.00 | 92 | 1015.1 |
| 20260502052507 | 14 | 352 | 16.1 | 33.8 | 0.03 | 3.48 | 0.00 | 93 | 1015.1 |
| 20260502052008 | 14 | 39 | 14.5 | 29.0 | 0.03 | 3.48 | 0.00 | 93 | 1015.3 |
| 20260502051521 | 14 | 38 | 16.1 | 32.2 | 0.03 | 3.48 | 0.00 | 92 | 1015.4 |
| 20260502051003 | 14 | 54 | 19.3 | 33.8 | 0.03 | 3.48 | 0.00 | 92 | 1015.6 |
| 20260502050503 | 15 | 32 | 16.1 | 35.4 | 0.05 | 3.48 | 0.00 | 92 | 1015.5 |
| 20260502050004 | 15 | 11 | 17.7 | 35.4 | 0.05 | 3.48 | 0.00 | 92 | 1015.5 |
| 20260502045503 | 15 | 11 | 17.7 | 30.6 | 0.08 | 3.48 | 3.48 | 93 | 1015.5 |
| 20260502045004 | 15 | 360 | 16.1 | 30.6 | 0.10 | 3.48 | 3.48 | 93 | 1015.5 |
| 20260502044506 | 15 | 41 | 11.3 | 25.7 | 0.10 | 3.48 | 3.48 | 93 | 1015.4 |
| 20260502044003 | 15 | 38 | 12.9 | 30.6 | 0.10 | 3.48 | 3.48 | 93 | 1015.4 |
| 20260502043503 | 15 | 36 | 16.1 | 30.6 | 0.08 | 3.45 | 3.45 | 93 | 1015.3 |
| 20260502043012 | 15 | 54 | 12.9 | 27.4 | 0.08 | 3.45 | 3.45 | 93 | 1015.2 |
| 20260502042504 | 15 | 56 | 6.4 | 24.1 | 0.08 | 3.45 | 3.45 | 93 | 1015.3 |
| 20260502042004 | 15 | 31 | 8.0 | 30.6 | 0.10 | 3.45 | 3.45 | 93 | 1015.5 |
| 20260502041514 | 15 | 47 | 11.3 | 30.6 | 0.10 | 3.45 | 3.45 | 93 | 1015.4 |
| 20260502041007 | 15 | 61 | 6.4 | 30.6 | 0.10 | 3.45 | 3.45 | 93 | 1015.2 |
| 20260502040507 | 15 | 38 | 9.7 | 30.6 | 0.08 | 3.43 | 3.43 | 93 | 1015.1 |
| 20260502040023 | 15 | 20 | 12.9 | 29.0 | 0.08 | 3.43 | 3.43 | 93 | 1015.1 |
| 20260502035507 | 15 | 32 | 11.3 | 25.7 | 0.08 | 3.40 | 3.40 | 93 | 1015.1 |
| 20260502035003 | 15 | 42 | 8.0 | 24.1 | 0.08 | 3.38 | 3.38 | 93 | 1014.8 |
| 20260502034504 | 15 | 69 | 4.8 | 27.4 | 0.08 | 3.38 | 3.38 | 93 | 1014.8 |
| 20260502034004 | 16 | 100 | 12.9 | 27.4 | 0.10 | 3.38 | 3.38 | 93 | 1014.7 |
| 20260502033504 | 16 | 53 | 6.4 | 25.7 | 0.13 | 3.38 | 3.38 | 93 | 1014.4 |
| 20260502033006 | 16 | 38 | 4.8 | 25.7 | 0.13 | 3.38 | 3.38 | 93 | 1014.3 |
| 20260502032504 | 16 | 32 | 9.7 | 25.7 | 0.15 | 3.38 | 3.38 | 93 | 1014.5 |
| 20260502032003 | 16 | 22 | 12.9 | 25.7 | 0.13 | 3.35 | 3.35 | 93 | 1014.2 |
| 20260502031514 | 16 | 40 | 14.5 | 25.7 | 0.15 | 3.35 | 3.35 | 93 | 1014.4 |
| 20260502031004 | 16 | 78 | 8.0 | 24.1 | 0.20 | 3.35 | 3.35 | 93 | 1014.2 |
| 20260502030507 | 16 | 32 | 11.3 | 25.7 | 0.23 | 3.35 | 3.35 | 93 | 1014.1 |
| 20260502030017 | 16 | 27 | 12.9 | 25.7 | 0.25 | 3.35 | 3.35 | 94 | 1014.1 |
| 20260502025506 | 16 | 44 | 14.5 | 22.5 | 0.28 | 3.33 | 3.33 | 94 | 1014.1 |
| 20260502025006 | 16 | 64 | 11.3 | 25.7 | 0.33 | 3.30 | 3.30 | 94 | 1014.0 |
| 20260502024521 | 16 | 12 | 9.7 | 30.6 | 0.38 | 3.30 | 3.30 | 94 | 1014.0 |
| 20260502024010 | 16 | 69 | 11.3 | 30.6 | 0.38 | 3.28 | 3.28 | 93 | 1014.2 |
| 20260502023503 | 16 | 24 | 17.7 | 30.6 | 0.38 | 3.25 | 3.25 | 93 | 1014.2 |
| 20260502023006 | 16 | 51 | 11.3 | 25.7 | 0.41 | 3.25 | 3.25 | 94 | 1013.8 |
| 20260502022504 | 16 | 352 | 9.7 | 22.5 | 0.41 | 3.23 | 3.23 | 94 | 1013.6 |
| 20260502022004 | 16 | 61 | 6.4 | 17.7 | 0.43 | 3.23 | 3.23 | 94 | 1013.6 |
| 20260502021509 | 16 | 53 | 6.4 | 25.7 | 0.51 | 3.20 | 3.20 | 94 | 1013.6 |
| 20260502021006 | 16 | 62 | 14.5 | 25.7 | 0.61 | 3.15 | 3.15 | 94 | 1013.5 |
| 20260502020503 | 16 | 15 | 12.9 | 24.1 | 0.64 | 3.12 | 3.12 | 93 | 1013.5 |
| 20260502020015 | 16 | 19 | 11.3 | 24.1 | 0.69 | 3.10 | 3.10 | 93 | 1013.3 |
| 20260502015504 | 16 | 53 | 12.9 | 24.1 | 0.74 | 3.05 | 3.05 | 93 | 1013.1 |
| 20260502015010 | 16 | 20 | 9.7 | 29.0 | 0.66 | 2.95 | 2.95 | 93 | 1012.8 |
| 20260502014523 | 16 | 32 | 12.9 | 29.0 | 0.61 | 2.92 | 2.92 | 93 | 1012.7 |
| 20260502014009 | 16 | 49 | 12.9 | 24.1 | 0.58 | 2.90 | 2.90 | 93 | 1012.4 |
| 20260502013507 | 16 | 45 | 9.7 | 24.1 | 0.56 | 2.87 | 2.87 | 93 | 1012.1 |
| 20260502013023 | 16 | 58 | 11.3 | 25.7 | 0.53 | 2.84 | 2.84 | 93 | 1011.8 |
| 20260502012508 | 16 | 30 | 11.3 | 25.7 | 0.51 | 2.82 | 2.82 | 93 | 1012.1 |
| 20260502012003 | 16 | 5 | 14.5 | 30.6 | 0.48 | 2.79 | 2.79 | 93 | 1011.8 |
| 20260502011508 | 16 | 46 | 14.5 | 37.0 | 0.38 | 2.67 | 2.67 | 92 | 1011.8 |
| 20260502011003 | 16 | 39 | 14.5 | 38.6 | 0.23 | 2.54 | 2.54 | 92 | 1011.6 |
| 20260502010504 | 16 | 17 | 20.9 | 38.6 | 0.18 | 2.49 | 2.49 | 92 | 1011.8 |
| 20260502010024 | 16 | 19 | 17.7 | 48.3 | 0.10 | 2.41 | 2.41 | 91 | 1011.5 |
| 20260502005505 | 17 | 32 | 22.5 | 48.3 | 0.00 | 2.31 | 2.31 | 91 | 1011.6 |
| 20260502005004 | 17 | 69 | 16.1 | 43.5 | 0.00 | 2.31 | 2.31 | 92 | 1011.0 |
| 20260502004526 | 17 | 13 | 24.1 | 43.5 | 0.00 | 2.31 | 2.31 | 92 | 1010.3 |
| 20260502004003 | 17 | 10 | 27.4 | 45.1 | 0.00 | 2.31 | 2.31 | 92 | 1010.3 |
| 20260502003508 | 17 | 5 | 17.7 | 45.1 | 0.00 | 2.31 | 2.31 | 93 | 1009.9 |
| 20260502003023 | 17 | 11 | 19.3 | 37.0 | 0.00 | 2.31 | 2.31 | 93 | 1009.8 |
| 20260502002509 | 17 | 352 | 14.5 | 30.6 | 0.00 | 2.31 | 2.31 | 93 | 1009.7 |
| 20260502002006 | 17 | 63 | 16.1 | 30.6 | 0.00 | 2.31 | 2.31 | 93 | 1009.3 |
| 20260502001524 | 17 | 44 | 12.9 | 30.6 | 0.00 | 2.31 | 2.31 | 93 | 1009.7 |
| 20260502001009 | 17 | 346 | 14.5 | 37.0 | 0.00 | 2.31 | 2.31 | 93 | 1010.2 |
| 20260502000509 | 17 | 48 | 16.1 | 37.0 | 0.00 | 2.31 | 2.31 | 93 | 1010.1 |
| 20260502000008 | 17 | 51 | 12.9 | 35.4 | 0.00 | 2.31 | 2.31 | 93 | 1010.0 |
| 20260501235503 | 17 | 11 | 16.1 | 35.4 | 0.03 | 2.31 | 2.31 | 93 | 1010.0 |
| 20260501235005 | 17 | 5 | 11.3 | 29.0 | 0.08 | 2.31 | 2.31 | 93 | 1009.7 |
| 20260501234503 | 17 | 90 | 8.0 | 29.0 | 0.10 | 2.31 | 2.31 | 93 | 1009.6 |
| 20260501234006 | 17 | 5 | 8.0 | 30.6 | 0.13 | 2.31 | 2.31 | 93 | 1009.4 |
| 20260501233501 | 17 | 69 | 11.3 | 30.6 | 0.13 | 2.31 | 2.31 | 93 | 1009.1 |
| 20260501233004 | 17 | 50 | 16.1 | 29.0 | 0.13 | 2.31 | 2.31 | 93 | 1009.1 |
| 20260501232504 | 17 | 40 | 14.5 | 27.4 | 0.13 | 2.31 | 2.31 | 93 | 1009.3 |
| 20260501232006 | 17 | 86 | 11.3 | 25.7 | 0.13 | 2.31 | 2.31 | 93 | 1009.5 |
| 20260501231503 | 17 | 30 | 14.5 | 32.2 | 0.13 | 2.31 | 2.31 | 94 | 1009.7 |
| 20260501231003 | 17 | 40 | 12.9 | 32.2 | 0.13 | 2.31 | 2.31 | 93 | 1009.5 |
| 20260501230504 | 18 | 44 | 11.3 | 30.6 | 0.13 | 2.31 | 2.31 | 93 | 1009.4 |
| 20260501230003 | 18 | 79 | 11.3 | 25.7 | 0.13 | 2.31 | 2.31 | 94 | 1009.5 |
| 20260501225505 | 18 | 58 | 9.7 | 25.7 | 0.13 | 2.29 | 2.29 | 93 | 1009.5 |
| 20260501225006 | 18 | 55 | 9.7 | 29.0 | 0.10 | 2.24 | 2.24 | 93 | 1009.6 |
| 20260501224505 | 18 | 52 | 8.0 | 29.0 | 0.10 | 2.21 | 2.21 | 93 | 1010.0 |
| 20260501224004 | 18 | 51 | 6.4 | 29.0 | 0.13 | 2.18 | 2.18 | 94 | 1010.3 |
| 20260501223504 | 18 | 108 | 11.3 | 29.0 | 0.20 | 2.18 | 2.18 | 94 | 1010.2 |
| 20260501223004 | 18 | 71 | 11.3 | 24.1 | 0.23 | 2.18 | 2.18 | 94 | 1010.2 |
| 20260501222504 | 18 | 86 | 12.9 | 29.0 | 0.23 | 2.18 | 2.18 | 94 | 1009.9 |
| 20260501222003 | 18 | 43 | 9.7 | 29.0 | 0.23 | 2.18 | 2.18 | 94 | 1009.7 |
| 20260501221503 | 18 | 54 | 12.9 | 29.0 | 0.25 | 2.18 | 2.18 | 94 | 1009.4 |
| 20260501221002 | 18 | 92 | 17.7 | 38.6 | 0.28 | 2.18 | 2.18 | 94 | 1009.0 |
| 20260501220502 | 18 | 104 | 20.9 | 38.6 | 0.41 | 2.18 | 2.18 | 94 | 1008.9 |
| 20260501220004 | 18 | 65 | 19.3 | 40.2 | 0.48 | 2.18 | 2.18 | 94 | 1009.2 |
| 20260501215503 | 18 | 92 | 20.9 | 40.2 | 0.46 | 2.16 | 2.16 | 94 | 1008.3 |
| 20260501215002 | 18 | 87 | 19.3 | 30.6 | 0.43 | 2.13 | 2.13 | 93 | 1010.0 |
| 20260501214508 | 18 | 79 | 17.7 | 30.6 | 0.43 | 2.11 | 2.11 | 93 | 1010.8 |
| 20260501214003 | 18 | 67 | 17.7 | 29.0 | 0.41 | 2.06 | 2.06 | 93 | 1011.1 |
| 20260501213503 | 18 | 30 | 6.4 | 33.8 | 0.38 | 1.98 | 1.98 | 93 | 1010.7 |
| 20260501213004 | 18 | 61 | 12.9 | 33.8 | 0.46 | 1.96 | 1.96 | 93 | 1010.8 |
| 20260501212504 | 18 | 72 | 14.5 | 27.4 | 0.53 | 1.96 | 1.96 | 93 | 1010.4 |
| 20260501212003 | 18 | 60 | 9.7 | 22.5 | 0.56 | 1.96 | 1.96 | 93 | 1010.1 |
| 20260501211508 | 18 | 28 | 11.3 | 24.1 | 0.56 | 1.93 | 1.93 | 93 | 1009.8 |
| 20260501211003 | 18 | 60 | 12.9 | 27.4 | 0.53 | 1.91 | 1.91 | 93 | 1010.1 |
| 20260501210502 | 18 | 67 | 12.9 | 27.4 | 0.41 | 1.78 | 1.78 | 93 | 1010.2 |
| 20260501210004 | 18 | 11 | 6.4 | 27.4 | 0.33 | 1.70 | 1.70 | 93 | 1010.0 |
| 20260501205503 | 18 | 5 | 6.4 | 30.6 | 0.33 | 1.70 | 1.70 | 93 | 1009.9 |
| 20260501205004 | 18 | 49 | 11.3 | 30.6 | 0.33 | 1.70 | 1.70 | 93 | 1009.3 |
| 20260501204515 | 18 | 55 | 14.5 | 33.8 | 0.36 | 1.68 | 1.68 | 93 | 1008.9 |
| 20260501204003 | 18 | 49 | 17.7 | 33.8 | 0.36 | 1.65 | 1.65 | 93 | 1008.5 |
| 20260501203505 | 18 | 87 | 19.3 | 30.6 | 0.30 | 1.60 | 1.60 | 93 | 1008.7 |
| 20260501203007 | 18 | 55 | 6.4 | 27.4 | 0.20 | 1.47 | 1.47 | 93 | 1009.2 |
| 20260501202503 | 18 | 9 | 11.3 | 27.4 | 0.13 | 1.42 | 1.42 | 93 | 1009.6 |
| 20260501202006 | 18 | 56 | 11.3 | 30.6 | 0.13 | 1.40 | 1.40 | 93 | 1009.0 |
| 20260501201506 | 18 | 27 | 14.5 | 30.6 | 0.15 | 1.37 | 1.37 | 93 | 1008.7 |
| 20260501201002 | 18 | 90 | 16.1 | 30.6 | 0.18 | 1.37 | 1.37 | 93 | 1008.7 |
| 20260501200503 | 18 | 51 | 19.3 | 33.8 | 0.20 | 1.37 | 1.37 | 93 | 1008.7 |
| 20260501200008 | 18 | 61 | 17.7 | 33.8 | 0.28 | 1.37 | 1.37 | 93 | 1008.9 |
| 20260501195505 | 18 | 65 | 20.9 | 30.6 | 0.28 | 1.37 | 1.37 | 92 | 1009.0 |
| 20260501195004 | 18 | 74 | 20.9 | 30.6 | 0.28 | 1.37 | 1.37 | 92 | 1009.1 |
| 20260501194506 | 18 | 93 | 14.5 | 27.4 | 0.23 | 1.32 | 1.32 | 92 | 1009.2 |
| 20260501194003 | 18 | 66 | 17.7 | 27.4 | 0.20 | 1.30 | 1.30 | 92 | 1009.5 |
| 20260501193507 | 18 | 53 | 11.3 | 25.7 | 0.20 | 1.30 | 1.30 | 93 | 1009.5 |
| 20260501193007 | 18 | 90 | 11.3 | 30.6 | 0.20 | 1.30 | 1.30 | 93 | 1009.5 |
| 20260501192506 | 18 | 84 | 14.5 | 30.6 | 0.20 | 1.30 | 1.30 | 92 | 1009.4 |
| 20260501192005 | 18 | 74 | 11.3 | 29.0 | 0.18 | 1.27 | 1.27 | 93 | 1009.6 |
| 20260501191520 | 18 | 65 | 9.7 | 25.7 | 0.15 | 1.22 | 1.22 | 92 | 1010.0 |
| 20260501191004 | 18 | 80 | 11.3 | 32.2 | 0.13 | 1.19 | 1.19 | 92 | 1010.0 |
| 20260501190504 | 18 | 82 | 16.1 | 32.2 | 0.10 | 1.17 | 1.17 | 92 | 1009.8 |
| 20260501190014 | 18 | 18 | 12.9 | 25.7 | 0.03 | 1.09 | 1.09 | 92 | 1009.9 |
| 20260501185503 | 18 | 54 | 12.9 | 32.2 | 0.03 | 1.09 | 1.09 | 92 | 1009.8 |
| 20260501185003 | 18 | 53 | 16.1 | 32.2 | 0.03 | 1.09 | 1.09 | 92 | 1009.6 |
| 20260501184523 | 18 | 105 | 14.5 | 30.6 | 0.03 | 1.09 | 1.09 | 92 | 1009.4 |
| 20260501184003 | 18 | 39 | 14.5 | 27.4 | 0.03 | 1.09 | 1.09 | 91 | 1009.5 |
| 20260501183503 | 18 | 88 | 9.7 | 24.1 | 0.03 | 1.09 | 1.09 | 92 | 1009.7 |